sensor_id;sensor_type;location;lat;lon;timestamp;temperature;humidity
44431;DHT22;30135;47.866;-4.222;2023-05-07T00:00:54;16.00;99.90
44431;DHT22;30135;47.866;-4.222;2023-05-07T00:03:20;16.00;99.90
44431;DHT22;30135;47.866;-4.222;2023-05-07T00:05:46;16.00;99.90
44431;DHT22;30135;47.866;-4.222;2023-05-07T00:08:13;16.00;99.90
44431;DHT22;30135;47.866;-4.222;2023-05-07T00:10:39;16.00;99.90
44431;DHT22;30135;47.866;-4.222;2023-05-07T00:13:06;16.10;99.90
44431;DHT22;30135;47.866;-4.222;2023-05-07T00:15:32;16.00;99.90
44431;DHT22;30135;47.866;-4.222;2023-05-07T00:17:58;16.00;99.90
44431;DHT22;30135;47.866;-4.222;2023-05-07T00:20:25;16.10;99.90
44431;DHT22;30135;47.866;-4.222;2023-05-07T00:22:51;16.10;99.90
44431;DHT22;30135;47.866;-4.222;2023-05-07T00:25:17;16.00;99.90
44431;DHT22;30135;47.866;-4.222;2023-05-07T00:27:45;16.10;99.90
44431;DHT22;30135;47.866;-4.222;2023-05-07T00:30:11;16.00;99.90
44431;DHT22;30135;47.866;-4.222;2023-05-07T00:32:38;16.00;99.90
44431;DHT22;30135;47.866;-4.222;2023-05-07T00:35:05;16.00;99.90
44431;DHT22;30135;47.866;-4.222;2023-05-07T00:37:31;16.00;99.90
44431;DHT22;30135;47.866;-4.222;2023-05-07T00:39:57;16.00;99.90
44431;DHT22;30135;47.866;-4.222;2023-05-07T00:42:24;16.00;99.90
44431;DHT22;30135;47.866;-4.222;2023-05-07T00:44:50;16.00;99.90
44431;DHT22;30135;47.866;-4.222;2023-05-07T00:47:17;16.00;99.90
44431;DHT22;30135;47.866;-4.222;2023-05-07T00:49:44;16.00;99.90
44431;DHT22;30135;47.866;-4.222;2023-05-07T00:52:15;16.00;99.90
44431;DHT22;30135;47.866;-4.222;2023-05-07T00:54:42;16.00;99.90
44431;DHT22;30135;47.866;-4.222;2023-05-07T00:57:10;16.00;99.90
44431;DHT22;30135;47.866;-4.222;2023-05-07T00:59:41;16.00;99.90
44431;DHT22;30135;47.866;-4.222;2023-05-07T01:02:07;16.00;99.90
44431;DHT22;30135;47.866;-4.222;2023-05-07T01:04:33;16.00;99.90
44431;DHT22;30135;47.866;-4.222;2023-05-07T01:07:01;16.00;99.90
44431;DHT22;30135;47.866;-4.222;2023-05-07T01:09:28;16.00;99.90
44431;DHT22;30135;47.866;-4.222;2023-05-07T01:11:55;16.00;99.90
44431;DHT22;30135;47.866;-4.222;2023-05-07T01:14:23;16.00;99.90
44431;DHT22;30135;47.866;-4.222;2023-05-07T01:16:49;16.00;99.90
44431;DHT22;30135;47.866;-4.222;2023-05-07T01:19:18;16.00;99.90
44431;DHT22;30135;47.866;-4.222;2023-05-07T01:21:48;16.00;99.90
44431;DHT22;30135;47.866;-4.222;2023-05-07T01:24:15;16.00;99.90
44431;DHT22;30135;47.866;-4.222;2023-05-07T01:26:43;15.90;99.90
44431;DHT22;30135;47.866;-4.222;2023-05-07T01:29:10;16.00;99.90
44431;DHT22;30135;47.866;-4.222;2023-05-07T01:31:37;15.90;99.90
44431;DHT22;30135;47.866;-4.222;2023-05-07T01:34:05;16.00;99.90
44431;DHT22;30135;47.866;-4.222;2023-05-07T01:36:32;16.00;99.90
44431;DHT22;30135;47.866;-4.222;2023-05-07T01:38:59;16.00;99.90
44431;DHT22;30135;47.866;-4.222;2023-05-07T01:41:25;15.90;99.90
44431;DHT22;30135;47.866;-4.222;2023-05-07T01:43:52;16.00;99.90
44431;DHT22;30135;47.866;-4.222;2023-05-07T01:46:22;15.90;99.90
44431;DHT22;30135;47.866;-4.222;2023-05-07T01:48:50;15.90;99.90
44431;DHT22;30135;47.866;-4.222;2023-05-07T01:51:16;15.90;99.90
44431;DHT22;30135;47.866;-4.222;2023-05-07T01:53:42;15.90;99.90
44431;DHT22;30135;47.866;-4.222;2023-05-07T01:56:09;15.90;99.90
44431;DHT22;30135;47.866;-4.222;2023-05-07T01:58:35;15.90;99.90
44431;DHT22;30135;47.866;-4.222;2023-05-07T02:01:01;15.90;99.90
44431;DHT22;30135;47.866;-4.222;2023-05-07T02:03:27;15.90;99.90
44431;DHT22;30135;47.866;-4.222;2023-05-07T02:05:53;15.90;99.90
44431;DHT22;30135;47.866;-4.222;2023-05-07T02:08:19;15.90;99.90
44431;DHT22;30135;47.866;-4.222;2023-05-07T02:10:45;15.90;99.90
44431;DHT22;30135;47.866;-4.222;2023-05-07T02:13:11;15.90;99.90
44431;DHT22;30135;47.866;-4.222;2023-05-07T02:15:37;15.90;99.90
44431;DHT22;30135;47.866;-4.222;2023-05-07T02:18:07;15.90;99.90
44431;DHT22;30135;47.866;-4.222;2023-05-07T02:20:34;15.90;99.90
44431;DHT22;30135;47.866;-4.222;2023-05-07T02:23:00;15.90;99.90
44431;DHT22;30135;47.866;-4.222;2023-05-07T02:25:29;15.90;99.90
44431;DHT22;30135;47.866;-4.222;2023-05-07T02:27:55;15.90;99.90
44431;DHT22;30135;47.866;-4.222;2023-05-07T02:30:21;15.90;99.90
44431;DHT22;30135;47.866;-4.222;2023-05-07T02:32:47;15.90;99.90
44431;DHT22;30135;47.866;-4.222;2023-05-07T02:35:13;15.80;99.90
44431;DHT22;30135;47.866;-4.222;2023-05-07T02:37:39;15.90;99.90
44431;DHT22;30135;47.866;-4.222;2023-05-07T02:40:06;15.80;99.90
44431;DHT22;30135;47.866;-4.222;2023-05-07T02:42:32;15.80;99.90
44431;DHT22;30135;47.866;-4.222;2023-05-07T02:44:58;15.80;99.90
44431;DHT22;30135;47.866;-4.222;2023-05-07T02:47:24;15.80;99.90
44431;DHT22;30135;47.866;-4.222;2023-05-07T02:49:53;15.80;99.90
44431;DHT22;30135;47.866;-4.222;2023-05-07T02:52:20;15.80;99.90
44431;DHT22;30135;47.866;-4.222;2023-05-07T02:54:53;15.80;99.90
44431;DHT22;30135;47.866;-4.222;2023-05-07T02:57:28;15.80;99.90
44431;DHT22;30135;47.866;-4.222;2023-05-07T02:59:53;15.80;99.90
44431;DHT22;30135;47.866;-4.222;2023-05-07T03:02:19;15.80;99.90
44431;DHT22;30135;47.866;-4.222;2023-05-07T03:04:45;15.80;99.90
44431;DHT22;30135;47.866;-4.222;2023-05-07T03:07:11;15.80;99.90
44431;DHT22;30135;47.866;-4.222;2023-05-07T03:09:39;15.80;99.90
44431;DHT22;30135;47.866;-4.222;2023-05-07T03:12:06;15.70;99.90
44431;DHT22;30135;47.866;-4.222;2023-05-07T03:14:32;15.70;99.90
44431;DHT22;30135;47.866;-4.222;2023-05-07T03:16:58;15.80;99.90
44431;DHT22;30135;47.866;-4.222;2023-05-07T03:19:24;15.70;99.90
44431;DHT22;30135;47.866;-4.222;2023-05-07T03:21:51;15.70;99.90
44431;DHT22;30135;47.866;-4.222;2023-05-07T03:24:19;15.70;99.90
44431;DHT22;30135;47.866;-4.222;2023-05-07T03:26:45;15.70;99.90
44431;DHT22;30135;47.866;-4.222;2023-05-07T03:29:11;15.70;99.90
44431;DHT22;30135;47.866;-4.222;2023-05-07T03:31:37;15.70;99.90
44431;DHT22;30135;47.866;-4.222;2023-05-07T03:34:03;15.70;99.90
44431;DHT22;30135;47.866;-4.222;2023-05-07T03:36:30;15.60;99.90
44431;DHT22;30135;47.866;-4.222;2023-05-07T03:38:56;15.60;99.90
44431;DHT22;30135;47.866;-4.222;2023-05-07T03:41:22;15.60;99.90
44431;DHT22;30135;47.866;-4.222;2023-05-07T03:43:48;15.60;99.90
44431;DHT22;30135;47.866;-4.222;2023-05-07T03:46:14;15.60;99.90
44431;DHT22;30135;47.866;-4.222;2023-05-07T03:48:39;15.60;99.90
44431;DHT22;30135;47.866;-4.222;2023-05-07T03:51:05;15.60;99.90
44431;DHT22;30135;47.866;-4.222;2023-05-07T03:53:31;15.50;99.90
44431;DHT22;30135;47.866;-4.222;2023-05-07T03:55:57;15.50;99.90
44431;DHT22;30135;47.866;-4.222;2023-05-07T03:58:23;15.50;99.90
44431;DHT22;30135;47.866;-4.222;2023-05-07T04:00:49;15.40;99.90
44431;DHT22;30135;47.866;-4.222;2023-05-07T04:03:16;15.50;99.90
44431;DHT22;30135;47.866;-4.222;2023-05-07T04:05:42;15.40;99.90
44431;DHT22;30135;47.866;-4.222;2023-05-07T04:08:08;15.40;99.90
44431;DHT22;30135;47.866;-4.222;2023-05-07T04:10:34;15.40;99.90
44431;DHT22;30135;47.866;-4.222;2023-05-07T04:13:00;15.40;99.90
44431;DHT22;30135;47.866;-4.222;2023-05-07T04:15:27;15.40;99.90
44431;DHT22;30135;47.866;-4.222;2023-05-07T04:17:53;15.30;99.90
44431;DHT22;30135;47.866;-4.222;2023-05-07T04:20:19;15.30;99.90
44431;DHT22;30135;47.866;-4.222;2023-05-07T04:22:45;15.30;99.90
44431;DHT22;30135;47.866;-4.222;2023-05-07T04:25:11;15.30;99.90
44431;DHT22;30135;47.866;-4.222;2023-05-07T04:27:37;15.30;99.90
44431;DHT22;30135;47.866;-4.222;2023-05-07T04:30:03;15.30;99.90
44431;DHT22;30135;47.866;-4.222;2023-05-07T04:32:30;15.30;99.90
44431;DHT22;30135;47.866;-4.222;2023-05-07T04:34:56;15.30;99.90
44431;DHT22;30135;47.866;-4.222;2023-05-07T04:37:23;15.30;99.90
44431;DHT22;30135;47.866;-4.222;2023-05-07T04:39:49;15.30;99.90
44431;DHT22;30135;47.866;-4.222;2023-05-07T04:42:16;15.30;99.90
44431;DHT22;30135;47.866;-4.222;2023-05-07T04:44:44;15.30;99.90
44431;DHT22;30135;47.866;-4.222;2023-05-07T04:47:13;15.30;99.90
44431;DHT22;30135;47.866;-4.222;2023-05-07T04:49:39;15.30;99.90
44431;DHT22;30135;47.866;-4.222;2023-05-07T04:52:05;15.30;99.90
44431;DHT22;30135;47.866;-4.222;2023-05-07T04:54:31;15.30;99.90
44431;DHT22;30135;47.866;-4.222;2023-05-07T04:56:57;15.30;99.90
44431;DHT22;30135;47.866;-4.222;2023-05-07T04:59:23;15.20;99.90
44431;DHT22;30135;47.866;-4.222;2023-05-07T05:01:49;15.20;99.90
44431;DHT22;30135;47.866;-4.222;2023-05-07T05:04:15;15.20;99.90
44431;DHT22;30135;47.866;-4.222;2023-05-07T05:06:41;15.20;99.90
44431;DHT22;30135;47.866;-4.222;2023-05-07T05:09:07;15.20;99.90
44431;DHT22;30135;47.866;-4.222;2023-05-07T05:11:33;15.20;99.90
44431;DHT22;30135;47.866;-4.222;2023-05-07T05:13:59;15.20;99.90
44431;DHT22;30135;47.866;-4.222;2023-05-07T05:16:28;15.20;99.90
44431;DHT22;30135;47.866;-4.222;2023-05-07T05:18:54;15.20;99.90
44431;DHT22;30135;47.866;-4.222;2023-05-07T05:21:20;15.20;99.90
44431;DHT22;30135;47.866;-4.222;2023-05-07T05:23:46;15.20;99.90
44431;DHT22;30135;47.866;-4.222;2023-05-07T05:26:13;15.20;99.90
44431;DHT22;30135;47.866;-4.222;2023-05-07T05:28:39;15.20;99.90
44431;DHT22;30135;47.866;-4.222;2023-05-07T05:31:05;15.20;99.90
44431;DHT22;30135;47.866;-4.222;2023-05-07T05:33:31;15.20;99.90
44431;DHT22;30135;47.866;-4.222;2023-05-07T05:35:57;15.20;99.90
44431;DHT22;30135;47.866;-4.222;2023-05-07T05:38:23;15.20;99.90
44431;DHT22;30135;47.866;-4.222;2023-05-07T05:40:49;15.20;99.90
44431;DHT22;30135;47.866;-4.222;2023-05-07T05:43:15;15.10;99.90
44431;DHT22;30135;47.866;-4.222;2023-05-07T05:45:41;15.20;99.90
44431;DHT22;30135;47.866;-4.222;2023-05-07T05:48:07;15.10;99.90
44431;DHT22;30135;47.866;-4.222;2023-05-07T05:50:34;15.10;99.90
44431;DHT22;30135;47.866;-4.222;2023-05-07T05:53:02;15.20;99.90
44431;DHT22;30135;47.866;-4.222;2023-05-07T05:55:28;15.20;99.90
44431;DHT22;30135;47.866;-4.222;2023-05-07T05:57:54;15.10;99.90
44431;DHT22;30135;47.866;-4.222;2023-05-07T06:00:21;15.10;99.90
44431;DHT22;30135;47.866;-4.222;2023-05-07T06:02:48;15.20;99.90
44431;DHT22;30135;47.866;-4.222;2023-05-07T06:05:14;15.10;99.90
44431;DHT22;30135;47.866;-4.222;2023-05-07T06:07:40;15.10;99.90
44431;DHT22;30135;47.866;-4.222;2023-05-07T06:10:07;15.10;99.90
44431;DHT22;30135;47.866;-4.222;2023-05-07T06:12:33;15.10;99.90
44431;DHT22;30135;47.866;-4.222;2023-05-07T06:14:59;15.10;99.90
44431;DHT22;30135;47.866;-4.222;2023-05-07T06:17:28;15.10;99.90
44431;DHT22;30135;47.866;-4.222;2023-05-07T06:19:53;15.20;99.90
44431;DHT22;30135;47.866;-4.222;2023-05-07T06:22:19;15.10;99.90
44431;DHT22;30135;47.866;-4.222;2023-05-07T06:24:45;15.20;99.90
44431;DHT22;30135;47.866;-4.222;2023-05-07T06:27:11;15.10;99.90
44431;DHT22;30135;47.866;-4.222;2023-05-07T06:29:40;15.10;99.90
44431;DHT22;30135;47.866;-4.222;2023-05-07T06:32:11;15.20;99.90
44431;DHT22;30135;47.866;-4.222;2023-05-07T06:34:38;15.20;99.90
44431;DHT22;30135;47.866;-4.222;2023-05-07T06:37:05;15.20;99.90
44431;DHT22;30135;47.866;-4.222;2023-05-07T06:39:31;15.20;99.90
44431;DHT22;30135;47.866;-4.222;2023-05-07T06:41:58;15.20;99.90
44431;DHT22;30135;47.866;-4.222;2023-05-07T06:44:24;15.10;99.90
44431;DHT22;30135;47.866;-4.222;2023-05-07T06:46:50;15.10;99.90
44431;DHT22;30135;47.866;-4.222;2023-05-07T06:49:15;15.10;99.90
44431;DHT22;30135;47.866;-4.222;2023-05-07T06:51:41;15.20;99.90
44431;DHT22;30135;47.866;-4.222;2023-05-07T06:54:07;15.20;99.90
44431;DHT22;30135;47.866;-4.222;2023-05-07T06:56:34;15.20;99.90
44431;DHT22;30135;47.866;-4.222;2023-05-07T06:59:01;15.20;99.90
44431;DHT22;30135;47.866;-4.222;2023-05-07T07:01:28;15.20;99.90
44431;DHT22;30135;47.866;-4.222;2023-05-07T07:03:54;15.20;99.90
44431;DHT22;30135;47.866;-4.222;2023-05-07T07:06:20;15.20;99.90
44431;DHT22;30135;47.866;-4.222;2023-05-07T07:08:46;15.20;99.90
44431;DHT22;30135;47.866;-4.222;2023-05-07T07:11:12;15.30;99.90
44431;DHT22;30135;47.866;-4.222;2023-05-07T07:13:38;15.30;99.90
44431;DHT22;30135;47.866;-4.222;2023-05-07T07:16:05;15.30;99.90
44431;DHT22;30135;47.866;-4.222;2023-05-07T07:18:31;15.30;99.90
44431;DHT22;30135;47.866;-4.222;2023-05-07T07:20:57;15.30;99.90
44431;DHT22;30135;47.866;-4.222;2023-05-07T07:23:23;15.30;99.90
44431;DHT22;30135;47.866;-4.222;2023-05-07T07:25:49;15.30;99.90
44431;DHT22;30135;47.866;-4.222;2023-05-07T07:28:15;15.30;99.90
44431;DHT22;30135;47.866;-4.222;2023-05-07T07:30:41;15.30;99.90
44431;DHT22;30135;47.866;-4.222;2023-05-07T07:33:07;15.30;99.90
44431;DHT22;30135;47.866;-4.222;2023-05-07T07:35:33;15.30;99.90
44431;DHT22;30135;47.866;-4.222;2023-05-07T07:37:59;15.40;99.90
44431;DHT22;30135;47.866;-4.222;2023-05-07T07:40:27;15.40;99.90
44431;DHT22;30135;47.866;-4.222;2023-05-07T07:43:00;15.40;99.90
44431;DHT22;30135;47.866;-4.222;2023-05-07T07:45:27;15.40;99.90
44431;DHT22;30135;47.866;-4.222;2023-05-07T07:47:53;15.50;99.90
44431;DHT22;30135;47.866;-4.222;2023-05-07T07:50:19;15.40;99.90
44431;DHT22;30135;47.866;-4.222;2023-05-07T07:52:45;15.50;99.90
44431;DHT22;30135;47.866;-4.222;2023-05-07T07:55:11;15.40;99.90
44431;DHT22;30135;47.866;-4.222;2023-05-07T07:57:37;15.50;99.90
44431;DHT22;30135;47.866;-4.222;2023-05-07T08:00:04;15.50;99.90
44431;DHT22;30135;47.866;-4.222;2023-05-07T08:02:32;15.50;99.90
44431;DHT22;30135;47.866;-4.222;2023-05-07T08:04:58;15.50;99.90
44431;DHT22;30135;47.866;-4.222;2023-05-07T08:07:24;15.50;99.90
44431;DHT22;30135;47.866;-4.222;2023-05-07T08:09:50;15.50;99.90
44431;DHT22;30135;47.866;-4.222;2023-05-07T08:12:16;15.60;99.90
44431;DHT22;30135;47.866;-4.222;2023-05-07T08:14:42;15.60;99.90
44431;DHT22;30135;47.866;-4.222;2023-05-07T08:17:08;15.60;99.90
44431;DHT22;30135;47.866;-4.222;2023-05-07T08:19:35;15.60;99.90
44431;DHT22;30135;47.866;-4.222;2023-05-07T08:22:03;15.60;99.90
44431;DHT22;30135;47.866;-4.222;2023-05-07T08:24:31;15.60;99.90
44431;DHT22;30135;47.866;-4.222;2023-05-07T08:26:57;15.70;99.90
44431;DHT22;30135;47.866;-4.222;2023-05-07T08:29:23;15.70;99.90
44431;DHT22;30135;47.866;-4.222;2023-05-07T08:31:49;15.80;99.90
44431;DHT22;30135;47.866;-4.222;2023-05-07T08:34:15;15.70;99.90
44431;DHT22;30135;47.866;-4.222;2023-05-07T08:36:41;15.80;99.90
44431;DHT22;30135;47.866;-4.222;2023-05-07T08:39:11;15.80;99.90
44431;DHT22;30135;47.866;-4.222;2023-05-07T08:41:37;15.80;99.90
44431;DHT22;30135;47.866;-4.222;2023-05-07T08:44:06;15.80;99.90
44431;DHT22;30135;47.866;-4.222;2023-05-07T08:46:37;15.80;99.90
44431;DHT22;30135;47.866;-4.222;2023-05-07T08:49:03;15.80;99.90
44431;DHT22;30135;47.866;-4.222;2023-05-07T08:51:29;15.80;99.90
44431;DHT22;30135;47.866;-4.222;2023-05-07T08:53:56;15.80;99.90
44431;DHT22;30135;47.866;-4.222;2023-05-07T08:56:23;15.90;99.90
44431;DHT22;30135;47.866;-4.222;2023-05-07T08:58:49;15.90;99.90
44431;DHT22;30135;47.866;-4.222;2023-05-07T09:01:16;15.90;99.90
44431;DHT22;30135;47.866;-4.222;2023-05-07T09:03:46;15.90;99.90
44431;DHT22;30135;47.866;-4.222;2023-05-07T09:06:12;16.00;99.90
44431;DHT22;30135;47.866;-4.222;2023-05-07T09:08:38;16.00;99.90
44431;DHT22;30135;47.866;-4.222;2023-05-07T09:11:04;16.00;99.90
44431;DHT22;30135;47.866;-4.222;2023-05-07T09:13:30;16.10;99.90
44431;DHT22;30135;47.866;-4.222;2023-05-07T09:15:56;16.10;99.90
44431;DHT22;30135;47.866;-4.222;2023-05-07T09:18:25;16.10;99.90
44431;DHT22;30135;47.866;-4.222;2023-05-07T09:20:51;16.10;99.90
44431;DHT22;30135;47.866;-4.222;2023-05-07T09:23:17;16.20;99.90
44431;DHT22;30135;47.866;-4.222;2023-05-07T09:25:43;16.10;99.90
44431;DHT22;30135;47.866;-4.222;2023-05-07T09:28:09;16.20;99.90
44431;DHT22;30135;47.866;-4.222;2023-05-07T09:30:36;16.20;99.90
44431;DHT22;30135;47.866;-4.222;2023-05-07T09:33:03;16.20;99.80
44431;DHT22;30135;47.866;-4.222;2023-05-07T09:35:30;16.20;99.60
44431;DHT22;30135;47.866;-4.222;2023-05-07T09:37:58;16.20;99.40
44431;DHT22;30135;47.866;-4.222;2023-05-07T09:40:27;16.20;99.30
44431;DHT22;30135;47.866;-4.222;2023-05-07T09:42:54;16.20;99.10
44431;DHT22;30135;47.866;-4.222;2023-05-07T09:45:28;16.20;99.00
44431;DHT22;30135;47.866;-4.222;2023-05-07T09:47:56;16.20;98.80
44431;DHT22;30135;47.866;-4.222;2023-05-07T09:50:49;16.20;98.80
44431;DHT22;30135;47.866;-4.222;2023-05-07T09:53:17;16.20;98.50
44431;DHT22;30135;47.866;-4.222;2023-05-07T09:55:43;16.30;98.70
44431;DHT22;30135;47.866;-4.222;2023-05-07T09:58:12;16.30;98.90
44431;DHT22;30135;47.866;-4.222;2023-05-07T10:00:40;16.30;98.40
44431;DHT22;30135;47.866;-4.222;2023-05-07T10:03:08;16.30;98.20
44431;DHT22;30135;47.866;-4.222;2023-05-07T10:05:35;16.30;98.00
44431;DHT22;30135;47.866;-4.222;2023-05-07T10:08:01;16.30;97.90
44431;DHT22;30135;47.866;-4.222;2023-05-07T10:10:29;16.30;97.80
44431;DHT22;30135;47.866;-4.222;2023-05-07T10:12:58;16.30;97.70
44431;DHT22;30135;47.866;-4.222;2023-05-07T10:15:24;16.30;97.60
44431;DHT22;30135;47.866;-4.222;2023-05-07T10:17:51;16.30;97.60
44431;DHT22;30135;47.866;-4.222;2023-05-07T10:20:19;16.30;97.50
44431;DHT22;30135;47.866;-4.222;2023-05-07T10:22:47;16.30;97.60
44431;DHT22;30135;47.866;-4.222;2023-05-07T10:25:44;16.30;97.50
44431;DHT22;30135;47.866;-4.222;2023-05-07T10:28:11;16.30;97.30
44431;DHT22;30135;47.866;-4.222;2023-05-07T10:33:17;16.30;97.40
44431;DHT22;30135;47.866;-4.222;2023-05-07T10:35:46;16.30;97.50
44431;DHT22;30135;47.866;-4.222;2023-05-07T10:38:13;16.30;97.40
44431;DHT22;30135;47.866;-4.222;2023-05-07T10:40:40;16.30;97.50
44431;DHT22;30135;47.866;-4.222;2023-05-07T10:43:06;16.30;97.50
44431;DHT22;30135;47.866;-4.222;2023-05-07T10:45:33;16.30;97.60
44431;DHT22;30135;47.866;-4.222;2023-05-07T10:48:11;16.30;97.60
44431;DHT22;30135;47.866;-4.222;2023-05-07T10:50:39;16.30;97.80
44431;DHT22;30135;47.866;-4.222;2023-05-07T10:55:48;16.30;97.90
44431;DHT22;30135;47.866;-4.222;2023-05-07T11:05:25;16.40;97.80
44431;DHT22;30135;47.866;-4.222;2023-05-07T11:08:00;16.40;98.20
44431;DHT22;30135;47.866;-4.222;2023-05-07T11:16:22;16.40;97.50
44431;DHT22;30135;47.866;-4.222;2023-05-07T11:18:54;16.40;97.40
44431;DHT22;30135;47.866;-4.222;2023-05-07T11:21:41;16.40;97.40
44431;DHT22;30135;47.866;-4.222;2023-05-07T11:24:08;16.30;97.00
44431;DHT22;30135;47.866;-4.222;2023-05-07T11:26:49;16.30;97.00
44431;DHT22;30135;47.866;-4.222;2023-05-07T11:29:20;16.30;96.90
44431;DHT22;30135;47.866;-4.222;2023-05-07T11:31:51;16.30;96.70
44431;DHT22;30135;47.866;-4.222;2023-05-07T11:34:23;16.30;96.70
44431;DHT22;30135;47.866;-4.222;2023-05-07T11:36:50;16.30;96.70
44431;DHT22;30135;47.866;-4.222;2023-05-07T11:39:32;16.30;96.60
44431;DHT22;30135;47.866;-4.222;2023-05-07T11:42:02;16.30;96.40
44431;DHT22;30135;47.866;-4.222;2023-05-07T11:44:44;16.20;96.40
44431;DHT22;30135;47.866;-4.222;2023-05-07T11:47:16;16.30;96.50
44431;DHT22;30135;47.866;-4.222;2023-05-07T11:49:47;16.20;96.40
44431;DHT22;30135;47.866;-4.222;2023-05-07T11:52:17;16.20;96.40
44431;DHT22;30135;47.866;-4.222;2023-05-07T11:54:50;16.20;96.30
44431;DHT22;30135;47.866;-4.222;2023-05-07T11:57:21;16.30;96.10
44431;DHT22;30135;47.866;-4.222;2023-05-07T11:59:55;16.30;96.00
44431;DHT22;30135;47.866;-4.222;2023-05-07T12:02:24;16.30;96.00
44431;DHT22;30135;47.866;-4.222;2023-05-07T12:04:51;16.30;96.00
44431;DHT22;30135;47.866;-4.222;2023-05-07T12:07:18;16.40;95.90
44431;DHT22;30135;47.866;-4.222;2023-05-07T12:09:45;16.40;95.80
44431;DHT22;30135;47.866;-4.222;2023-05-07T12:12:13;16.40;95.70
44431;DHT22;30135;47.866;-4.222;2023-05-07T12:14:44;16.40;95.60
44431;DHT22;30135;47.866;-4.222;2023-05-07T12:17:12;16.40;95.50
44431;DHT22;30135;47.866;-4.222;2023-05-07T12:19:41;16.40;95.40
44431;DHT22;30135;47.866;-4.222;2023-05-07T12:22:09;16.40;95.40
44431;DHT22;30135;47.866;-4.222;2023-05-07T12:24:49;16.50;95.40
44431;DHT22;30135;47.866;-4.222;2023-05-07T12:27:22;16.40;95.70
44431;DHT22;30135;47.866;-4.222;2023-05-07T12:29:49;16.50;95.40
44431;DHT22;30135;47.866;-4.222;2023-05-07T12:32:17;16.40;95.40
44431;DHT22;30135;47.866;-4.222;2023-05-07T12:34:45;16.50;95.40
44431;DHT22;30135;47.866;-4.222;2023-05-07T12:37:11;16.50;95.40
44431;DHT22;30135;47.866;-4.222;2023-05-07T12:39:43;16.50;95.40
44431;DHT22;30135;47.866;-4.222;2023-05-07T12:42:23;16.50;95.30
44431;DHT22;30135;47.866;-4.222;2023-05-07T12:44:57;16.50;95.30
44431;DHT22;30135;47.866;-4.222;2023-05-07T12:47:23;16.40;95.20
44431;DHT22;30135;47.866;-4.222;2023-05-07T12:49:49;16.50;95.30
44431;DHT22;30135;47.866;-4.222;2023-05-07T12:52:15;16.50;95.30
44431;DHT22;30135;47.866;-4.222;2023-05-07T12:54:41;16.50;95.20
44431;DHT22;30135;47.866;-4.222;2023-05-07T12:57:09;16.50;95.20
44431;DHT22;30135;47.866;-4.222;2023-05-07T12:59:41;16.50;95.00
44431;DHT22;30135;47.866;-4.222;2023-05-07T13:02:08;16.50;95.00
44431;DHT22;30135;47.866;-4.222;2023-05-07T13:04:35;16.50;95.00
44431;DHT22;30135;47.866;-4.222;2023-05-07T13:07:01;16.50;95.00
44431;DHT22;30135;47.866;-4.222;2023-05-07T13:09:28;16.50;95.00
44431;DHT22;30135;47.866;-4.222;2023-05-07T13:11:55;16.50;95.00
44431;DHT22;30135;47.866;-4.222;2023-05-07T13:14:21;16.40;94.90
44431;DHT22;30135;47.866;-4.222;2023-05-07T13:16:47;16.50;94.80
44431;DHT22;30135;47.866;-4.222;2023-05-07T13:19:13;16.40;94.70
44431;DHT22;30135;47.866;-4.222;2023-05-07T13:21:39;16.40;94.60
44431;DHT22;30135;47.866;-4.222;2023-05-07T13:24:06;16.40;94.70
44431;DHT22;30135;47.866;-4.222;2023-05-07T13:26:32;16.40;94.60
44431;DHT22;30135;47.866;-4.222;2023-05-07T13:28:58;16.40;94.60
44431;DHT22;30135;47.866;-4.222;2023-05-07T13:31:24;16.40;94.60
44431;DHT22;30135;47.866;-4.222;2023-05-07T13:33:50;16.50;94.70
44431;DHT22;30135;47.866;-4.222;2023-05-07T13:36:27;16.50;94.70
44431;DHT22;30135;47.866;-4.222;2023-05-07T13:38:54;16.50;94.70
44431;DHT22;30135;47.866;-4.222;2023-05-07T13:41:20;16.50;94.70
44431;DHT22;30135;47.866;-4.222;2023-05-07T13:43:46;16.50;94.70
44431;DHT22;30135;47.866;-4.222;2023-05-07T13:46:12;16.50;94.80
44431;DHT22;30135;47.866;-4.222;2023-05-07T13:48:38;16.50;94.80
44431;DHT22;30135;47.866;-4.222;2023-05-07T13:51:04;16.50;94.90
44431;DHT22;30135;47.866;-4.222;2023-05-07T13:53:30;16.50;94.70
44431;DHT22;30135;47.866;-4.222;2023-05-07T13:55:56;16.50;94.70
44431;DHT22;30135;47.866;-4.222;2023-05-07T13:58:24;16.60;94.60
44431;DHT22;30135;47.866;-4.222;2023-05-07T14:00:50;16.60;94.60
44431;DHT22;30135;47.866;-4.222;2023-05-07T14:03:17;16.60;94.40
44431;DHT22;30135;47.866;-4.222;2023-05-07T14:05:45;16.70;94.30
44431;DHT22;30135;47.866;-4.222;2023-05-07T14:08:11;16.70;94.20
44431;DHT22;30135;47.866;-4.222;2023-05-07T14:10:39;16.70;94.20
44431;DHT22;30135;47.866;-4.222;2023-05-07T14:13:08;16.70;94.00
44431;DHT22;30135;47.866;-4.222;2023-05-07T14:15:37;16.70;93.80
44431;DHT22;30135;47.866;-4.222;2023-05-07T14:18:03;16.80;93.80
44431;DHT22;30135;47.866;-4.222;2023-05-07T14:20:30;16.80;93.70
44431;DHT22;30135;47.866;-4.222;2023-05-07T14:22:56;16.80;93.80
44431;DHT22;30135;47.866;-4.222;2023-05-07T14:25:24;16.80;93.70
44431;DHT22;30135;47.866;-4.222;2023-05-07T14:27:50;16.90;93.60
44431;DHT22;30135;47.866;-4.222;2023-05-07T14:30:16;16.90;93.60
44431;DHT22;30135;47.866;-4.222;2023-05-07T14:32:42;17.00;93.50
44431;DHT22;30135;47.866;-4.222;2023-05-07T14:35:08;17.00;93.40
44431;DHT22;30135;47.866;-4.222;2023-05-07T14:37:34;17.00;93.20
44431;DHT22;30135;47.866;-4.222;2023-05-07T14:40:00;17.00;93.10
44431;DHT22;30135;47.866;-4.222;2023-05-07T14:42:26;17.00;93.10
44431;DHT22;30135;47.866;-4.222;2023-05-07T14:44:52;17.00;93.00
44431;DHT22;30135;47.866;-4.222;2023-05-07T14:47:18;17.00;93.10
44431;DHT22;30135;47.866;-4.222;2023-05-07T14:49:44;17.00;93.20
44431;DHT22;30135;47.866;-4.222;2023-05-07T14:52:10;17.00;93.10
44431;DHT22;30135;47.866;-4.222;2023-05-07T14:54:37;17.00;93.10
44431;DHT22;30135;47.866;-4.222;2023-05-07T14:57:04;17.00;93.10
44431;DHT22;30135;47.866;-4.222;2023-05-07T14:59:32;17.10;93.00
44431;DHT22;30135;47.866;-4.222;2023-05-07T15:01:58;17.10;93.10
44431;DHT22;30135;47.866;-4.222;2023-05-07T15:04:24;17.10;92.90
44431;DHT22;30135;47.866;-4.222;2023-05-07T15:06:50;17.10;92.60
44431;DHT22;30135;47.866;-4.222;2023-05-07T15:09:17;17.20;92.60
44431;DHT22;30135;47.866;-4.222;2023-05-07T15:11:45;17.20;92.30
44431;DHT22;30135;47.866;-4.222;2023-05-07T15:14:11;17.20;92.10
44431;DHT22;30135;47.866;-4.222;2023-05-07T15:16:37;17.30;92.10
44431;DHT22;30135;47.866;-4.222;2023-05-07T15:19:03;17.30;92.00
44431;DHT22;30135;47.866;-4.222;2023-05-07T15:21:29;17.30;92.00
44431;DHT22;30135;47.866;-4.222;2023-05-07T15:23:58;17.40;92.00
44431;DHT22;30135;47.866;-4.222;2023-05-07T15:26:24;17.40;92.00
44431;DHT22;30135;47.866;-4.222;2023-05-07T15:28:50;17.40;91.90
44431;DHT22;30135;47.866;-4.222;2023-05-07T15:31:16;17.40;91.90
44431;DHT22;30135;47.866;-4.222;2023-05-07T15:33:42;17.50;91.90